sensor_id;sensor_type;location;lat;lon;timestamp;P1;durP1;ratioP1;P2;durP2;ratioP2
51020;SDS011;38907;45.562;8.856;2022-12-13T00:03:43;60.10;;;29.13;;
51020;SDS011;38907;45.562;8.856;2022-12-13T00:08:45;67.97;;;32.55;;
51020;SDS011;38907;45.562;8.856;2022-12-13T00:13:48;66.63;;;31.63;;
51020;SDS011;38907;45.562;8.856;2022-12-13T00:18:51;67.60;;;31.67;;
51020;SDS011;38907;45.562;8.856;2022-12-13T00:23:55;62.72;;;31.42;;
51020;SDS011;38907;45.562;8.856;2022-12-13T00:28:59;62.42;;;31.70;;
51020;SDS011;38907;45.562;8.856;2022-12-13T00:34:02;62.05;;;30.58;;
51020;SDS011;38907;45.562;8.856;2022-12-13T00:39:04;66.63;;;31.42;;
51020;SDS011;38907;45.562;8.856;2022-12-13T00:44:08;68.60;;;33.47;;
51020;SDS011;38907;45.562;8.856;2022-12-13T00:49:11;69.32;;;32.63;;
51020;SDS011;38907;45.562;8.856;2022-12-13T00:54:14;57.55;;;30.35;;
51020;SDS011;38907;45.562;8.856;2022-12-13T00:59:17;56.40;;;29.92;;
51020;SDS011;38907;45.562;8.856;2022-12-13T01:04:19;65.22;;;29.77;;
51020;SDS011;38907;45.562;8.856;2022-12-13T01:09:22;61.45;;;30.50;;
51020;SDS011;38907;45.562;8.856;2022-12-13T01:14:27;57.40;;;28.65;;
51020;SDS011;38907;45.562;8.856;2022-12-13T01:19:30;57.97;;;28.08;;
51020;SDS011;38907;45.562;8.856;2022-12-13T01:24:32;59.45;;;29.88;;
51020;SDS011;38907;45.562;8.856;2022-12-13T01:29:36;58.60;;;28.20;;
51020;SDS011;38907;45.562;8.856;2022-12-13T01:34:38;59.70;;;28.50;;
51020;SDS011;38907;45.562;8.856;2022-12-13T01:39:40;61.65;;;29.15;;
51020;SDS011;38907;45.562;8.856;2022-12-13T01:45:00;56.13;;;27.00;;
51020;SDS011;38907;45.562;8.856;2022-12-13T01:50:05;56.15;;;26.52;;
51020;SDS011;38907;45.562;8.856;2022-12-13T01:55:10;54.30;;;27.23;;
51020;SDS011;38907;45.562;8.856;2022-12-13T02:00:15;54.83;;;27.52;;
51020;SDS011;38907;45.562;8.856;2022-12-13T02:05:20;60.17;;;28.73;;
51020;SDS011;38907;45.562;8.856;2022-12-13T02:10:26;51.17;;;26.42;;
51020;SDS011;38907;45.562;8.856;2022-12-13T02:15:31;58.25;;;28.35;;
51020;SDS011;38907;45.562;8.856;2022-12-13T02:31:44;51.88;;;26.45;;
51020;SDS011;38907;45.562;8.856;2022-12-13T02:36:55;51.20;;;25.15;;
51020;SDS011;38907;45.562;8.856;2022-12-13T02:42:04;55.22;;;26.27;;
51020;SDS011;38907;45.562;8.856;2022-12-13T02:47:12;55.28;;;28.15;;
51020;SDS011;38907;45.562;8.856;2022-12-13T02:52:18;52.70;;;27.10;;
51020;SDS011;38907;45.562;8.856;2022-12-13T02:57:27;57.80;;;26.67;;
51020;SDS011;38907;45.562;8.856;2022-12-13T03:02:35;50.63;;;26.77;;
51020;SDS011;38907;45.562;8.856;2022-12-13T03:07:45;54.40;;;27.95;;
51020;SDS011;38907;45.562;8.856;2022-12-13T03:12:58;60.83;;;28.13;;
51020;SDS011;38907;45.562;8.856;2022-12-13T03:18:22;54.63;;;28.02;;
51020;SDS011;38907;45.562;8.856;2022-12-13T03:23:27;50.83;;;27.63;;
51020;SDS011;38907;45.562;8.856;2022-12-13T03:28:29;53.50;;;27.48;;
51020;SDS011;38907;45.562;8.856;2022-12-13T03:33:32;54.40;;;26.73;;
51020;SDS011;38907;45.562;8.856;2022-12-13T03:38:34;48.88;;;24.52;;
51020;SDS011;38907;45.562;8.856;2022-12-13T03:43:39;48.63;;;25.15;;
51020;SDS011;38907;45.562;8.856;2022-12-13T03:48:42;42.85;;;23.70;;
51020;SDS011;38907;45.562;8.856;2022-12-13T03:53:44;47.17;;;23.98;;
51020;SDS011;38907;45.562;8.856;2022-12-13T03:58:46;42.92;;;23.98;;
51020;SDS011;38907;45.562;8.856;2022-12-13T04:03:49;45.05;;;23.95;;
51020;SDS011;38907;45.562;8.856;2022-12-13T04:08:51;46.65;;;23.42;;
51020;SDS011;38907;45.562;8.856;2022-12-13T04:13:53;45.97;;;23.20;;
51020;SDS011;38907;45.562;8.856;2022-12-13T04:18:56;49.20;;;23.77;;
51020;SDS011;38907;45.562;8.856;2022-12-13T04:23:58;42.78;;;22.55;;
51020;SDS011;38907;45.562;8.856;2022-12-13T04:29:00;45.97;;;23.17;;
51020;SDS011;38907;45.562;8.856;2022-12-13T04:34:03;50.67;;;24.10;;
51020;SDS011;38907;45.562;8.856;2022-12-13T04:39:05;43.72;;;22.63;;
51020;SDS011;38907;45.562;8.856;2022-12-13T04:44:08;41.75;;;21.48;;
51020;SDS011;38907;45.562;8.856;2022-12-13T04:49:12;46.15;;;22.38;;
51020;SDS011;38907;45.562;8.856;2022-12-13T04:54:14;40.42;;;23.63;;
51020;SDS011;38907;45.562;8.856;2022-12-13T04:59:16;52.05;;;24.77;;
51020;SDS011;38907;45.562;8.856;2022-12-13T05:04:19;45.67;;;23.05;;
51020;SDS011;38907;45.562;8.856;2022-12-13T05:09:21;40.75;;;22.83;;
51020;SDS011;38907;45.562;8.856;2022-12-13T05:14:23;51.92;;;21.67;;
51020;SDS011;38907;45.562;8.856;2022-12-13T05:19:27;47.50;;;22.85;;
51020;SDS011;38907;45.562;8.856;2022-12-13T05:29:31;45.55;;;22.85;;
51020;SDS011;38907;45.562;8.856;2022-12-13T05:34:34;40.88;;;22.15;;
51020;SDS011;38907;45.562;8.856;2022-12-13T05:39:36;47.17;;;23.40;;
51020;SDS011;38907;45.562;8.856;2022-12-13T05:44:38;44.90;;;22.92;;
51020;SDS011;38907;45.562;8.856;2022-12-13T05:49:41;47.42;;;22.77;;
51020;SDS011;38907;45.562;8.856;2022-12-13T05:54:43;45.05;;;21.63;;
51020;SDS011;38907;45.562;8.856;2022-12-13T05:59:45;41.10;;;20.23;;
51020;SDS011;38907;45.562;8.856;2022-12-13T06:04:48;47.72;;;22.38;;
51020;SDS011;38907;45.562;8.856;2022-12-13T06:09:50;43.10;;;21.40;;
51020;SDS011;38907;45.562;8.856;2022-12-13T06:14:52;41.70;;;21.38;;
51020;SDS011;38907;45.562;8.856;2022-12-13T06:19:55;40.90;;;20.85;;
51020;SDS011;38907;45.562;8.856;2022-12-13T06:24:57;43.53;;;21.20;;
51020;SDS011;38907;45.562;8.856;2022-12-13T06:30:00;37.40;;;20.50;;
51020;SDS011;38907;45.562;8.856;2022-12-13T06:35:04;41.67;;;20.02;;
51020;SDS011;38907;45.562;8.856;2022-12-13T06:40:06;35.65;;;20.70;;
51020;SDS011;38907;45.562;8.856;2022-12-13T06:45:09;37.73;;;20.27;;
51020;SDS011;38907;45.562;8.856;2022-12-13T06:50:12;42.28;;;21.27;;
51020;SDS011;38907;45.562;8.856;2022-12-13T06:55:14;34.80;;;19.88;;
51020;SDS011;38907;45.562;8.856;2022-12-13T07:00:16;39.67;;;20.95;;
51020;SDS011;38907;45.562;8.856;2022-12-13T07:05:20;39.90;;;21.48;;
51020;SDS011;38907;45.562;8.856;2022-12-13T07:15:24;40.28;;;19.73;;
51020;SDS011;38907;45.562;8.856;2022-12-13T07:20:27;37.15;;;21.45;;
51020;SDS011;38907;45.562;8.856;2022-12-13T07:25:29;42.72;;;20.92;;
51020;SDS011;38907;45.562;8.856;2022-12-13T07:30:31;38.80;;;20.63;;
51020;SDS011;38907;45.562;8.856;2022-12-13T07:35:36;38.38;;;20.13;;
51020;SDS011;38907;45.562;8.856;2022-12-13T07:40:38;34.67;;;19.33;;
51020;SDS011;38907;45.562;8.856;2022-12-13T07:45:42;37.15;;;19.40;;
51020;SDS011;38907;45.562;8.856;2022-12-13T07:50:46;45.58;;;19.75;;
51020;SDS011;38907;45.562;8.856;2022-12-13T07:55:48;35.17;;;19.52;;
51020;SDS011;38907;45.562;8.856;2022-12-13T08:00:50;40.10;;;20.15;;
51020;SDS011;38907;45.562;8.856;2022-12-13T08:06:03;39.95;;;21.20;;
51020;SDS011;38907;45.562;8.856;2022-12-13T08:16:09;38.80;;;19.23;;
51020;SDS011;38907;45.562;8.856;2022-12-13T08:21:15;37.78;;;19.55;;
51020;SDS011;38907;45.562;8.856;2022-12-13T08:26:16;38.85;;;19.40;;
51020;SDS011;38907;45.562;8.856;2022-12-13T08:31:18;33.17;;;18.88;;
51020;SDS011;38907;45.562;8.856;2022-12-13T08:36:22;36.92;;;20.25;;
51020;SDS011;38907;45.562;8.856;2022-12-13T08:41:24;44.38;;;21.00;;
51020;SDS011;38907;45.562;8.856;2022-12-13T08:46:26;44.60;;;23.50;;
51020;SDS011;38907;45.562;8.856;2022-12-13T08:51:29;43.28;;;22.30;;
51020;SDS011;38907;45.562;8.856;2022-12-13T08:56:31;53.97;;;23.15;;
51020;SDS011;38907;45.562;8.856;2022-12-13T09:01:33;48.70;;;25.08;;
51020;SDS011;38907;45.562;8.856;2022-12-13T09:06:36;48.00;;;23.65;;
51020;SDS011;38907;45.562;8.856;2022-12-13T09:11:38;46.00;;;23.20;;
51020;SDS011;38907;45.562;8.856;2022-12-13T09:16:40;45.22;;;23.60;;
51020;SDS011;38907;45.562;8.856;2022-12-13T09:21:44;46.38;;;22.65;;
51020;SDS011;38907;45.562;8.856;2022-12-13T09:26:45;41.28;;;22.00;;
51020;SDS011;38907;45.562;8.856;2022-12-13T09:31:47;47.83;;;22.75;;
51020;SDS011;38907;45.562;8.856;2022-12-13T09:36:50;39.67;;;21.80;;
51020;SDS011;38907;45.562;8.856;2022-12-13T09:41:53;38.38;;;21.13;;
51020;SDS011;38907;45.562;8.856;2022-12-13T09:46:57;42.78;;;22.27;;
51020;SDS011;38907;45.562;8.856;2022-12-13T09:52:03;43.15;;;21.70;;
51020;SDS011;38907;45.562;8.856;2022-12-13T09:57:08;37.30;;;20.63;;
51020;SDS011;38907;45.562;8.856;2022-12-13T10:02:15;45.85;;;22.95;;
51020;SDS011;38907;45.562;8.856;2022-12-13T10:07:23;43.95;;;22.13;;
51020;SDS011;38907;45.562;8.856;2022-12-13T10:12:25;39.47;;;21.83;;
51020;SDS011;38907;45.562;8.856;2022-12-13T10:22:34;42.88;;;23.83;;
51020;SDS011;38907;45.562;8.856;2022-12-13T10:27:36;45.70;;;23.60;;
51020;SDS011;38907;45.562;8.856;2022-12-13T10:32:47;44.05;;;22.38;;
51020;SDS011;38907;45.562;8.856;2022-12-13T10:37:56;40.40;;;21.83;;
51020;SDS011;38907;45.562;8.856;2022-12-13T10:43:04;48.42;;;25.55;;
51020;SDS011;38907;45.562;8.856;2022-12-13T10:48:18;98.97;;;40.83;;
51020;SDS011;38907;45.562;8.856;2022-12-13T10:53:22;52.55;;;25.55;;
51020;SDS011;38907;45.562;8.856;2022-12-13T10:58:37;34.08;;;20.95;;
51020;SDS011;38907;45.562;8.856;2022-12-13T11:03:40;36.50;;;21.23;;
51020;SDS011;38907;45.562;8.856;2022-12-13T11:08:44;42.72;;;22.33;;
51020;SDS011;38907;45.562;8.856;2022-12-13T11:13:49;41.28;;;23.25;;
51020;SDS011;38907;45.562;8.856;2022-12-13T11:18:53;46.60;;;23.23;;
51020;SDS011;38907;45.562;8.856;2022-12-13T11:23:58;42.47;;;22.52;;
51020;SDS011;38907;45.562;8.856;2022-12-13T11:29:07;42.67;;;22.08;;
51020;SDS011;38907;45.562;8.856;2022-12-13T11:34:24;43.55;;;23.73;;
51020;SDS011;38907;45.562;8.856;2022-12-13T11:39:37;42.22;;;24.13;;
51020;SDS011;38907;45.562;8.856;2022-12-13T11:44:44;41.60;;;23.70;;
51020;SDS011;38907;45.562;8.856;2022-12-13T11:49:57;42.92;;;23.52;;
51020;SDS011;38907;45.562;8.856;2022-12-13T11:55:02;45.47;;;23.20;;
51020;SDS011;38907;45.562;8.856;2022-12-13T12:00:21;40.72;;;23.10;;
51020;SDS011;38907;45.562;8.856;2022-12-13T12:05:31;45.22;;;23.02;;
51020;SDS011;38907;45.562;8.856;2022-12-13T12:10:37;37.20;;;21.80;;
51020;SDS011;38907;45.562;8.856;2022-12-13T12:15:43;39.97;;;21.95;;
51020;SDS011;38907;45.562;8.856;2022-12-13T12:20:53;41.17;;;22.70;;
51020;SDS011;38907;45.562;8.856;2022-12-13T12:26:11;43.60;;;22.20;;
51020;SDS011;38907;45.562;8.856;2022-12-13T12:31:17;38.33;;;22.83;;
51020;SDS011;38907;45.562;8.856;2022-12-13T12:36:28;47.88;;;25.02;;
51020;SDS011;38907;45.562;8.856;2022-12-13T12:41:53;46.80;;;24.88;;
51020;SDS011;38907;45.562;8.856;2022-12-13T12:47:13;43.13;;;24.77;;
51020;SDS011;38907;45.562;8.856;2022-12-13T12:52:27;42.38;;;23.42;;
51020;SDS011;38907;45.562;8.856;2022-12-13T12:57:40;49.95;;;25.75;;
51020;SDS011;38907;45.562;8.856;2022-12-13T13:02:52;45.00;;;23.85;;
51020;SDS011;38907;45.562;8.856;2022-12-13T13:08:01;41.95;;;23.35;;
51020;SDS011;38907;45.562;8.856;2022-12-13T13:18:49;37.97;;;22.90;;
51020;SDS011;38907;45.562;8.856;2022-12-13T13:24:03;41.35;;;23.77;;
51020;SDS011;38907;45.562;8.856;2022-12-13T13:29:26;45.85;;;24.20;;
51020;SDS011;38907;45.562;8.856;2022-12-13T13:34:37;45.40;;;23.42;;
51020;SDS011;38907;45.562;8.856;2022-12-13T13:45:25;48.05;;;23.90;;
51020;SDS011;38907;45.562;8.856;2022-12-13T13:50:36;45.58;;;21.55;;
51020;SDS011;38907;45.562;8.856;2022-12-13T14:01:24;40.03;;;22.48;;
51020;SDS011;38907;45.562;8.856;2022-12-13T14:07:07;41.42;;;22.55;;
51020;SDS011;38907;45.562;8.856;2022-12-13T14:23:44;47.20;;;25.45;;
51020;SDS011;38907;45.562;8.856;2022-12-13T14:29:09;43.05;;;23.55;;
51020;SDS011;38907;45.562;8.856;2022-12-13T14:34:16;40.50;;;23.00;;
51020;SDS011;38907;45.562;8.856;2022-12-13T14:39:24;42.75;;;23.55;;
51020;SDS011;38907;45.562;8.856;2022-12-13T14:44:28;39.63;;;22.17;;
51020;SDS011;38907;45.562;8.856;2022-12-13T14:49:34;42.13;;;24.00;;
51020;SDS011;38907;45.562;8.856;2022-12-13T14:54:43;40.03;;;22.38;;
51020;SDS011;38907;45.562;8.856;2022-12-13T14:59:48;42.70;;;22.52;;
51020;SDS011;38907;45.562;8.856;2022-12-13T15:04:52;41.03;;;22.67;;
51020;SDS011;38907;45.562;8.856;2022-12-13T15:09:56;36.23;;;21.80;;
51020;SDS011;38907;45.562;8.856;2022-12-13T15:15:01;38.10;;;21.85;;
51020;SDS011;38907;45.562;8.856;2022-12-13T15:20:21;39.65;;;22.85;;
51020;SDS011;38907;45.562;8.856;2022-12-13T15:25:26;48.53;;;22.70;;
51020;SDS011;38907;45.562;8.856;2022-12-13T15:30:29;42.97;;;22.88;;
51020;SDS011;38907;45.562;8.856;2022-12-13T15:35:34;48.20;;;22.45;;
51020;SDS011;38907;45.562;8.856;2022-12-13T15:40:39;41.90;;;23.37;;
51020;SDS011;38907;45.562;8.856;2022-12-13T15:45:44;47.35;;;26.10;;
51020;SDS011;38907;45.562;8.856;2022-12-13T15:50:47;48.20;;;25.48;;
51020;SDS011;38907;45.562;8.856;2022-12-13T15:55:50;46.65;;;24.83;;
51020;SDS011;38907;45.562;8.856;2022-12-13T16:00:52;46.25;;;25.25;;
51020;SDS011;38907;45.562;8.856;2022-12-13T16:05:55;48.05;;;25.95;;
51020;SDS011;38907;45.562;8.856;2022-12-13T16:10:59;53.08;;;28.00;;
51020;SDS011;38907;45.562;8.856;2022-12-13T16:16:19;50.20;;;28.05;;
51020;SDS011;38907;45.562;8.856;2022-12-13T16:21:22;48.80;;;26.35;;
51020;SDS011;38907;45.562;8.856;2022-12-13T16:26:27;45.40;;;25.17;;
51020;SDS011;38907;45.562;8.856;2022-12-13T16:31:30;44.25;;;24.92;;
51020;SDS011;38907;45.562;8.856;2022-12-13T16:36:34;53.08;;;24.73;;
51020;SDS011;38907;45.562;8.856;2022-12-13T16:41:38;47.72;;;25.40;;
51020;SDS011;38907;45.562;8.856;2022-12-13T16:46:42;52.97;;;25.27;;
51020;SDS011;38907;45.562;8.856;2022-12-13T16:51:44;50.47;;;26.40;;
51020;SDS011;38907;45.562;8.856;2022-12-13T16:56:48;51.75;;;25.60;;
51020;SDS011;38907;45.562;8.856;2022-12-13T17:01:51;51.75;;;26.17;;
51020;SDS011;38907;45.562;8.856;2022-12-13T17:06:53;49.15;;;27.23;;
51020;SDS011;38907;45.562;8.856;2022-12-13T17:11:57;45.83;;;25.05;;
51020;SDS011;38907;45.562;8.856;2022-12-13T17:16:58;46.22;;;25.20;;
51020;SDS011;38907;45.562;8.856;2022-12-13T17:22:00;46.03;;;25.92;;
51020;SDS011;38907;45.562;8.856;2022-12-13T17:27:03;46.10;;;25.85;;
51020;SDS011;38907;45.562;8.856;2022-12-13T17:32:05;52.50;;;27.52;;
51020;SDS011;38907;45.562;8.856;2022-12-13T17:37:07;49.83;;;25.63;;
51020;SDS011;38907;45.562;8.856;2022-12-13T17:42:10;48.42;;;26.55;;
51020;SDS011;38907;45.562;8.856;2022-12-13T17:47:12;49.85;;;26.58;;
51020;SDS011;38907;45.562;8.856;2022-12-13T17:52:14;54.40;;;27.25;;
51020;SDS011;38907;45.562;8.856;2022-12-13T17:57:17;46.60;;;26.83;;
51020;SDS011;38907;45.562;8.856;2022-12-13T18:02:19;50.42;;;27.08;;
51020;SDS011;38907;45.562;8.856;2022-12-13T18:07:22;52.60;;;26.88;;
51020;SDS011;38907;45.562;8.856;2022-12-13T18:12:25;46.47;;;26.15;;
51020;SDS011;38907;45.562;8.856;2022-12-13T18:17:27;52.65;;;27.40;;
51020;SDS011;38907;45.562;8.856;2022-12-13T18:22:30;47.67;;;26.27;;
51020;SDS011;38907;45.562;8.856;2022-12-13T18:27:34;50.13;;;25.65;;
51020;SDS011;38907;45.562;8.856;2022-12-13T18:32:38;51.17;;;26.95;;
51020;SDS011;38907;45.562;8.856;2022-12-13T18:37:40;47.35;;;26.40;;
51020;SDS011;38907;45.562;8.856;2022-12-13T18:42:44;49.42;;;26.25;;
51020;SDS011;38907;45.562;8.856;2022-12-13T18:47:46;54.15;;;29.13;;
51020;SDS011;38907;45.562;8.856;2022-12-13T18:52:48;49.80;;;28.75;;
51020;SDS011;38907;45.562;8.856;2022-12-13T18:57:51;52.28;;;28.15;;
51020;SDS011;38907;45.562;8.856;2022-12-13T19:02:53;53.17;;;28.52;;
51020;SDS011;38907;45.562;8.856;2022-12-13T19:07:54;54.80;;;30.42;;
51020;SDS011;38907;45.562;8.856;2022-12-13T19:12:58;61.17;;;31.40;;
51020;SDS011;38907;45.562;8.856;2022-12-13T19:18:00;55.70;;;31.48;;
51020;SDS011;38907;45.562;8.856;2022-12-13T19:23:01;62.10;;;30.33;;
51020;SDS011;38907;45.562;8.856;2022-12-13T19:28:05;60.65;;;31.30;;
51020;SDS011;38907;45.562;8.856;2022-12-13T19:33:07;56.45;;;31.40;;
51020;SDS011;38907;45.562;8.856;2022-12-13T19:38:09;60.40;;;30.90;;
51020;SDS011;38907;45.562;8.856;2022-12-13T19:43:12;64.43;;;32.05;;
51020;SDS011;38907;45.562;8.856;2022-12-13T19:48:14;59.60;;;30.85;;
51020;SDS011;38907;45.562;8.856;2022-12-13T19:53:16;66.07;;;33.05;;
51020;SDS011;38907;45.562;8.856;2022-12-13T19:58:20;66.90;;;32.92;;
51020;SDS011;38907;45.562;8.856;2022-12-13T20:03:23;65.10;;;33.67;;
51020;SDS011;38907;45.562;8.856;2022-12-13T20:08:28;64.53;;;33.40;;
51020;SDS011;38907;45.562;8.856;2022-12-13T20:13:32;64.78;;;33.83;;
51020;SDS011;38907;45.562;8.856;2022-12-13T20:18:36;67.60;;;33.95;;
51020;SDS011;38907;45.562;8.856;2022-12-13T20:23:38;64.03;;;32.92;;
51020;SDS011;38907;45.562;8.856;2022-12-13T20:28:42;67.60;;;34.80;;
51020;SDS011;38907;45.562;8.856;2022-12-13T20:33:44;66.97;;;33.53;;
51020;SDS011;38907;45.562;8.856;2022-12-13T20:38:47;67.18;;;34.05;;
51020;SDS011;38907;45.562;8.856;2022-12-13T20:43:51;68.70;;;34.53;;
51020;SDS011;38907;45.562;8.856;2022-12-13T20:48:54;75.43;;;33.40;;
51020;SDS011;38907;45.562;8.856;2022-12-13T20:53:56;67.50;;;33.50;;
51020;SDS011;38907;45.562;8.856;2022-12-13T20:59:00;68.20;;;33.63;;
51020;SDS011;38907;45.562;8.856;2022-12-13T21:04:05;66.30;;;33.17;;
51020;SDS011;38907;45.562;8.856;2022-12-13T21:09:11;65.65;;;32.92;;
51020;SDS011;38907;45.562;8.856;2022-12-13T21:14:16;60.03;;;32.90;;
51020;SDS011;38907;45.562;8.856;2022-12-13T21:19:21;68.35;;;33.42;;
51020;SDS011;38907;45.562;8.856;2022-12-13T21:24:24;62.20;;;33.40;;
51020;SDS011;38907;45.562;8.856;2022-12-13T21:34:31;69.00;;;31.23;;
51020;SDS011;38907;45.562;8.856;2022-12-13T21:39:33;62.17;;;32.38;;
51020;SDS011;38907;45.562;8.856;2022-12-13T21:44:37;64.10;;;32.42;;
51020;SDS011;38907;45.562;8.856;2022-12-13T21:49:39;65.80;;;34.17;;
51020;SDS011;38907;45.562;8.856;2022-12-13T21:54:42;76.18;;;36.42;;
51020;SDS011;38907;45.562;8.856;2022-12-13T21:59:45;70.13;;;35.88;;
51020;SDS011;38907;45.562;8.856;2022-12-13T22:04:48;76.10;;;37.55;;
51020;SDS011;38907;45.562;8.856;2022-12-13T22:09:51;73.22;;;34.13;;
51020;SDS011;38907;45.562;8.856;2022-12-13T22:14:57;70.82;;;35.30;;
51020;SDS011;38907;45.562;8.856;2022-12-13T22:19:59;70.97;;;34.33;;
51020;SDS011;38907;45.562;8.856;2022-12-13T22:25:01;70.32;;;36.03;;
51020;SDS011;38907;45.562;8.856;2022-12-13T22:30:05;76.45;;;38.30;;
51020;SDS011;38907;45.562;8.856;2022-12-13T22:35:09;70.32;;;36.33;;
51020;SDS011;38907;45.562;8.856;2022-12-13T22:40:11;63.65;;;34.38;;
51020;SDS011;38907;45.562;8.856;2022-12-13T22:45:14;68.25;;;35.40;;
51020;SDS011;38907;45.562;8.856;2022-12-13T22:50:16;69.20;;;34.47;;
51020;SDS011;38907;45.562;8.856;2022-12-13T22:55:19;60.13;;;33.63;;
51020;SDS011;38907;45.562;8.856;2022-12-13T23:00:23;68.00;;;33.95;;
51020;SDS011;38907;45.562;8.856;2022-12-13T23:05:24;72.82;;;41.50;;
51020;SDS011;38907;45.562;8.856;2022-12-13T23:10:26;61.70;;;33.00;;
51020;SDS011;38907;45.562;8.856;2022-12-13T23:15:47;71.72;;;34.47;;
51020;SDS011;38907;45.562;8.856;2022-12-13T23:20:49;67.05;;;34.88;;
51020;SDS011;38907;45.562;8.856;2022-12-13T23:26:27;66.68;;;33.47;;
51020;SDS011;38907;45.562;8.856;2022-12-13T23:31:33;67.93;;;34.53;;
51020;SDS011;38907;45.562;8.856;2022-12-13T23:36:36;60.40;;;32.22;;
51020;SDS011;38907;45.562;8.856;2022-12-13T23:41:38;63.58;;;32.67;;
51020;SDS011;38907;45.562;8.856;2022-12-13T23:46:41;70.18;;;34.03;;
51020;SDS011;38907;45.562;8.856;2022-12-13T23:51:43;62.88;;;32.65;;
51020;SDS011;38907;45.562;8.856;2022-12-13T23:56:45;64.18;;;31.90;;
